Terminal Aerodrome Forecast
Issued by NWS

Current Version | Previous Version | Text Only | Print | Product List | Glossary On
Versions: 1 2 3 4 5 6 7 8 9 10 11 12 13 14 15 16 17 18 19
000
FTUS43 KSGF 260500
TAFBBG
TAF
KBBG 260531Z 2606/2706 33010G15KT P6SM OVC015
     FM260800 31007KT P6SM BKN015
     FM261000 30005KT 5SM BR SCT015
     FM261400 26005KT P6SM SKC
     FM261700 25010G15KT P6SM SKC
     FM262300 28005KT P6SM SKC=

USA.gov is the U.S. government's official web portal to all federal, state and local government web resources and services.